sensor_id;sensor_type;location;lat;lon;timestamp;pressure;altitude;pressure_sealevel;temperature;humidity
71970;BME280;59838;52.152;5.436;2023-10-19T00:00:59;99375.88;;;9.42;100.00
71970;BME280;59838;52.152;5.436;2023-10-19T00:03:26;99374.88;;;9.43;100.00
71970;BME280;59838;52.152;5.436;2023-10-19T00:05:55;99364.06;;;9.46;100.00
71970;BME280;59838;52.152;5.436;2023-10-19T00:08:22;99350.91;;;9.47;100.00
71970;BME280;59838;52.152;5.436;2023-10-19T00:10:54;99360.63;;;9.52;100.00
71970;BME280;59838;52.152;5.436;2023-10-19T00:13:37;99358.66;;;9.54;100.00
71970;BME280;59838;52.152;5.436;2023-10-19T00:16:07;99356.41;;;9.58;100.00
71970;BME280;59838;52.152;5.436;2023-10-19T00:18:44;99350.81;;;9.61;100.00
71970;BME280;59838;52.152;5.436;2023-10-19T00:21:10;99341.78;;;9.63;100.00
71970;BME280;59838;52.152;5.436;2023-10-19T00:23:38;99347.59;;;9.65;100.00
71970;BME280;59838;52.152;5.436;2023-10-19T00:26:06;99342.75;;;9.69;100.00
71970;BME280;59838;52.152;5.436;2023-10-19T00:28:40;99345.13;;;9.70;100.00
71970;BME280;59838;52.152;5.436;2023-10-19T00:31:07;99336.94;;;9.74;100.00
71970;BME280;59838;52.152;5.436;2023-10-19T00:33:38;99336.50;;;9.77;100.00
71970;BME280;59838;52.152;5.436;2023-10-19T00:36:12;99344.06;;;9.78;100.00
71970;BME280;59838;52.152;5.436;2023-10-19T00:38:42;99348.03;;;9.81;100.00
71970;BME280;59838;52.152;5.436;2023-10-19T00:41:25;99340.81;;;9.83;100.00
71970;BME280;59838;52.152;5.436;2023-10-19T00:43:59;99345.00;;;9.84;100.00
71970;BME280;59838;52.152;5.436;2023-10-19T00:46:38;99337.81;;;9.86;100.00
71970;BME280;59838;52.152;5.436;2023-10-19T00:49:13;99338.16;;;9.89;100.00
71970;BME280;59838;52.152;5.436;2023-10-19T00:51:47;99335.97;;;9.93;100.00
71970;BME280;59838;52.152;5.436;2023-10-19T00:54:27;99332.13;;;9.96;100.00
71970;BME280;59838;52.152;5.436;2023-10-19T00:57:01;99324.69;;;9.99;100.00
71970;BME280;59838;52.152;5.436;2023-10-19T00:59:39;99320.88;;;10.02;100.00
71970;BME280;59838;52.152;5.436;2023-10-19T01:02:16;99318.66;;;10.05;100.00
71970;BME280;59838;52.152;5.436;2023-10-19T01:04:45;99320.03;;;10.08;100.00
71970;BME280;59838;52.152;5.436;2023-10-19T01:07:17;99318.56;;;10.12;100.00
71970;BME280;59838;52.152;5.436;2023-10-19T01:10:08;99315.94;;;10.19;100.00
71970;BME280;59838;52.152;5.436;2023-10-19T01:12:35;99323.25;;;10.22;100.00
71970;BME280;59838;52.152;5.436;2023-10-19T01:15:19;99314.81;;;10.27;100.00
71970;BME280;59838;52.152;5.436;2023-10-19T01:17:51;99313.41;;;10.31;100.00
71970;BME280;59838;52.152;5.436;2023-10-19T01:20:30;99314.34;;;10.36;100.00
71970;BME280;59838;52.152;5.436;2023-10-19T01:22:59;99318.09;;;10.40;100.00
71970;BME280;59838;52.152;5.436;2023-10-19T01:25:48;99306.47;;;10.43;100.00
71970;BME280;59838;52.152;5.436;2023-10-19T01:30:55;99305.38;;;10.51;100.00
71970;BME280;59838;52.152;5.436;2023-10-19T01:33:22;99303.13;;;10.54;100.00
71970;BME280;59838;52.152;5.436;2023-10-19T01:35:49;99296.50;;;10.58;100.00
71970;BME280;59838;52.152;5.436;2023-10-19T01:38:34;99290.66;;;10.63;100.00
71970;BME280;59838;52.152;5.436;2023-10-19T01:41:04;99296.97;;;10.67;100.00
71970;BME280;59838;52.152;5.436;2023-10-19T01:43:44;99287.75;;;10.71;100.00
71970;BME280;59838;52.152;5.436;2023-10-19T01:46:12;99282.09;;;10.74;100.00
71970;BME280;59838;52.152;5.436;2023-10-19T01:48:40;99284.25;;;10.77;100.00
71970;BME280;59838;52.152;5.436;2023-10-19T01:51:08;99292.84;;;10.78;100.00
71970;BME280;59838;52.152;5.436;2023-10-19T01:53:37;99277.59;;;10.82;100.00
71970;BME280;59838;52.152;5.436;2023-10-19T01:56:13;99275.34;;;10.85;100.00
71970;BME280;59838;52.152;5.436;2023-10-19T01:58:42;99277.50;;;10.88;100.00
71970;BME280;59838;52.152;5.436;2023-10-19T02:01:09;99292.88;;;10.90;100.00
71970;BME280;59838;52.152;5.436;2023-10-19T02:03:40;99271.06;;;10.91;100.00
71970;BME280;59838;52.152;5.436;2023-10-19T02:06:10;99284.19;;;10.96;100.00
71970;BME280;59838;52.152;5.436;2023-10-19T02:08:59;99275.38;;;10.97;100.00
71970;BME280;59838;52.152;5.436;2023-10-19T02:11:45;99272.56;;;10.98;100.00
71970;BME280;59838;52.152;5.436;2023-10-19T02:14:14;99276.28;;;11.03;100.00
71970;BME280;59838;52.152;5.436;2023-10-19T02:16:42;99268.03;;;11.06;100.00
71970;BME280;59838;52.152;5.436;2023-10-19T02:19:10;99262.63;;;11.07;100.00
71970;BME280;59838;52.152;5.436;2023-10-19T02:21:36;99267.16;;;11.12;100.00
71970;BME280;59838;52.152;5.436;2023-10-19T02:24:07;99269.66;;;11.19;100.00
71970;BME280;59838;52.152;5.436;2023-10-19T02:26:34;99271.81;;;11.22;100.00
71970;BME280;59838;52.152;5.436;2023-10-19T02:29:02;99267.75;;;11.26;100.00
71970;BME280;59838;52.152;5.436;2023-10-19T02:31:34;99269.88;;;11.29;100.00
71970;BME280;59838;52.152;5.436;2023-10-19T02:34:04;99276.00;;;11.34;100.00
71970;BME280;59838;52.152;5.436;2023-10-19T02:36:31;99264.94;;;11.39;100.00
71970;BME280;59838;52.152;5.436;2023-10-19T02:39:03;99265.25;;;11.43;100.00
71970;BME280;59838;52.152;5.436;2023-10-19T02:41:38;99269.22;;;11.45;100.00
71970;BME280;59838;52.152;5.436;2023-10-19T02:44:08;99257.56;;;11.48;100.00
71970;BME280;59838;52.152;5.436;2023-10-19T02:46:36;99267.75;;;11.49;100.00
71970;BME280;59838;52.152;5.436;2023-10-19T02:49:09;99260.28;;;11.53;100.00
71970;BME280;59838;52.152;5.436;2023-10-19T02:51:42;99254.38;;;11.58;100.00
71970;BME280;59838;52.152;5.436;2023-10-19T02:54:13;99249.50;;;11.61;100.00
71970;BME280;59838;52.152;5.436;2023-10-19T02:56:47;99253.47;;;11.64;100.00
71970;BME280;59838;52.152;5.436;2023-10-19T02:59:15;99256.63;;;11.66;100.00
71970;BME280;59838;52.152;5.436;2023-10-19T03:01:42;99264.81;;;11.69;100.00
71970;BME280;59838;52.152;5.436;2023-10-19T03:04:12;99257.31;;;11.73;100.00
71970;BME280;59838;52.152;5.436;2023-10-19T03:06:38;99257.09;;;11.75;100.00
71970;BME280;59838;52.152;5.436;2023-10-19T03:09:08;99257.19;;;11.80;100.00
71970;BME280;59838;52.152;5.436;2023-10-19T03:12:00;99250.84;;;11.87;100.00
71970;BME280;59838;52.152;5.436;2023-10-19T03:14:31;99252.41;;;11.88;100.00
71970;BME280;59838;52.152;5.436;2023-10-19T03:16:58;99253.00;;;11.91;100.00
71970;BME280;59838;52.152;5.436;2023-10-19T03:19:30;99252.00;;;11.92;100.00
71970;BME280;59838;52.152;5.436;2023-10-19T03:21:56;99249.16;;;11.93;100.00
71970;BME280;59838;52.152;5.436;2023-10-19T03:24:26;99249.50;;;11.97;100.00
71970;BME280;59838;52.152;5.436;2023-10-19T03:27:04;99244.63;;;12.00;100.00
71970;BME280;59838;52.152;5.436;2023-10-19T03:29:46;99243.13;;;12.04;100.00
71970;BME280;59838;52.152;5.436;2023-10-19T03:32:15;99235.09;;;12.06;100.00
71970;BME280;59838;52.152;5.436;2023-10-19T03:34:42;99239.84;;;12.09;100.00
71970;BME280;59838;52.152;5.436;2023-10-19T03:37:14;99237.00;;;12.11;100.00
71970;BME280;59838;52.152;5.436;2023-10-19T03:39:41;99236.78;;;12.12;100.00
71970;BME280;59838;52.152;5.436;2023-10-19T03:42:08;99232.13;;;12.14;100.00
71970;BME280;59838;52.152;5.436;2023-10-19T03:44:34;99227.47;;;12.16;100.00
71970;BME280;59838;52.152;5.436;2023-10-19T03:47:20;99229.63;;;12.19;100.00
71970;BME280;59838;52.152;5.436;2023-10-19T03:49:47;99231.22;;;12.20;100.00
71970;BME280;59838;52.152;5.436;2023-10-19T03:52:15;99226.31;;;12.24;100.00
71970;BME280;59838;52.152;5.436;2023-10-19T03:54:42;99227.13;;;12.24;100.00
71970;BME280;59838;52.152;5.436;2023-10-19T03:57:10;99224.25;;;12.26;100.00
71970;BME280;59838;52.152;5.436;2023-10-19T03:59:41;99220.19;;;12.30;100.00
71970;BME280;59838;52.152;5.436;2023-10-19T04:02:08;99215.75;;;12.31;100.00
71970;BME280;59838;52.152;5.436;2023-10-19T04:04:43;99218.13;;;12.32;100.00
71970;BME280;59838;52.152;5.436;2023-10-19T04:07:11;99226.53;;;12.34;100.00
71970;BME280;59838;52.152;5.436;2023-10-19T04:09:44;99228.88;;;12.36;100.00
71970;BME280;59838;52.152;5.436;2023-10-19T04:12:39;99215.84;;;12.36;100.00
71970;BME280;59838;52.152;5.436;2023-10-19T04:15:10;99209.41;;;12.38;100.00
71970;BME280;59838;52.152;5.436;2023-10-19T04:17:44;99219.56;;;12.40;100.00
71970;BME280;59838;52.152;5.436;2023-10-19T04:20:13;99210.75;;;12.41;100.00
71970;BME280;59838;52.152;5.436;2023-10-19T04:22:46;99207.91;;;12.42;100.00
71970;BME280;59838;52.152;5.436;2023-10-19T04:25:14;99202.25;;;12.46;100.00
71970;BME280;59838;52.152;5.436;2023-10-19T04:27:43;99197.25;;;12.44;100.00
71970;BME280;59838;52.152;5.436;2023-10-19T04:30:10;99195.69;;;12.43;100.00
71970;BME280;59838;52.152;5.436;2023-10-19T04:32:50;99198.19;;;12.38;100.00
71970;BME280;59838;52.152;5.436;2023-10-19T04:35:18;99204.34;;;12.32;100.00
71970;BME280;59838;52.152;5.436;2023-10-19T04:37:51;99209.00;;;12.30;100.00
71970;BME280;59838;52.152;5.436;2023-10-19T04:40:20;99220.19;;;12.30;100.00
71970;BME280;59838;52.152;5.436;2023-10-19T04:42:48;99214.88;;;12.25;100.00
71970;BME280;59838;52.152;5.436;2023-10-19T04:45:15;99208.56;;;12.21;100.00
71970;BME280;59838;52.152;5.436;2023-10-19T04:47:42;99211.41;;;12.19;100.00
71970;BME280;59838;52.152;5.436;2023-10-19T04:50:10;99212.91;;;12.15;100.00
71970;BME280;59838;52.152;5.436;2023-10-19T04:52:38;99212.81;;;12.10;100.00
71970;BME280;59838;52.152;5.436;2023-10-19T04:55:05;99209.63;;;12.08;100.00
71970;BME280;59838;52.152;5.436;2023-10-19T04:57:32;99212.69;;;12.05;100.00
71970;BME280;59838;52.152;5.436;2023-10-19T04:59:58;99216.88;;;12.06;100.00
71970;BME280;59838;52.152;5.436;2023-10-19T05:02:25;99228.88;;;12.07;100.00
71970;BME280;59838;52.152;5.436;2023-10-19T05:04:51;99225.81;;;12.10;100.00
71970;BME280;59838;52.152;5.436;2023-10-19T05:07:18;99220.94;;;12.14;100.00
71970;BME280;59838;52.152;5.436;2023-10-19T05:09:45;99224.09;;;12.16;100.00
71970;BME280;59838;52.152;5.436;2023-10-19T05:12:14;99233.50;;;12.17;100.00
71970;BME280;59838;52.152;5.436;2023-10-19T05:14:42;99229.63;;;12.19;100.00
71970;BME280;59838;52.152;5.436;2023-10-19T05:17:09;99225.22;;;12.20;100.00
71970;BME280;59838;52.152;5.436;2023-10-19T05:19:38;99229.72;;;12.24;100.00
71970;BME280;59838;52.152;5.436;2023-10-19T05:22:06;99238.31;;;12.25;100.00
71970;BME280;59838;52.152;5.436;2023-10-19T05:24:34;99238.09;;;12.27;100.00
71970;BME280;59838;52.152;5.436;2023-10-19T05:27:00;99234.44;;;12.28;100.00
71970;BME280;59838;52.152;5.436;2023-10-19T05:29:27;99241.81;;;12.31;100.00
71970;BME280;59838;52.152;5.436;2023-10-19T05:31:54;99240.78;;;12.32;100.00
71970;BME280;59838;52.152;5.436;2023-10-19T05:34:21;99243.94;;;12.34;100.00
71970;BME280;59838;52.152;5.436;2023-10-19T05:36:48;99247.09;;;12.36;100.00
71970;BME280;59838;52.152;5.436;2023-10-19T05:39:19;99253.66;;;12.38;100.00
71970;BME280;59838;52.152;5.436;2023-10-19T05:41:45;99249.81;;;12.41;100.00
71970;BME280;59838;52.152;5.436;2023-10-19T05:44:12;99252.41;;;12.41;100.00
71970;BME280;59838;52.152;5.436;2023-10-19T05:46:38;99257.94;;;12.44;100.00
71970;BME280;59838;52.152;5.436;2023-10-19T05:49:07;99261.41;;;12.50;100.00
71970;BME280;59838;52.152;5.436;2023-10-19T05:51:34;99264.38;;;12.54;100.00
71970;BME280;59838;52.152;5.436;2023-10-19T05:54:00;99260.97;;;12.53;100.00
71970;BME280;59838;52.152;5.436;2023-10-19T05:56:30;99259.16;;;12.54;100.00
71970;BME280;59838;52.152;5.436;2023-10-19T05:58:57;99258.34;;;12.53;100.00
71970;BME280;59838;52.152;5.436;2023-10-19T06:01:24;99264.13;;;12.55;100.00
71970;BME280;59838;52.152;5.436;2023-10-19T06:03:51;99257.88;;;12.56;100.00
71970;BME280;59838;52.152;5.436;2023-10-19T06:06:21;99259.47;;;12.57;100.00
71970;BME280;59838;52.152;5.436;2023-10-19T06:08:48;99272.28;;;12.59;100.00
71970;BME280;59838;52.152;5.436;2023-10-19T06:11:15;99264.78;;;12.62;100.00
71970;BME280;59838;52.152;5.436;2023-10-19T06:13:42;99265.31;;;12.65;100.00
71970;BME280;59838;52.152;5.436;2023-10-19T06:16:09;99264.31;;;12.66;100.00
71970;BME280;59838;52.152;5.436;2023-10-19T06:18:36;99254.44;;;12.68;100.00
71970;BME280;59838;52.152;5.436;2023-10-19T06:21:03;99257.03;;;12.68;100.00
71970;BME280;59838;52.152;5.436;2023-10-19T06:23:30;99258.63;;;12.69;100.00
71970;BME280;59838;52.152;5.436;2023-10-19T06:25:57;99265.41;;;12.70;100.00
71970;BME280;59838;52.152;5.436;2023-10-19T06:28:24;99262.56;;;12.71;100.00
71970;BME280;59838;52.152;5.436;2023-10-19T06:30:50;99267.53;;;12.73;100.00
71970;BME280;59838;52.152;5.436;2023-10-19T06:33:17;99262.91;;;12.75;100.00
71970;BME280;59838;52.152;5.436;2023-10-19T06:35:43;99261.88;;;12.76;100.00
71970;BME280;59838;52.152;5.436;2023-10-19T06:38:10;99266.06;;;12.77;100.00
71970;BME280;59838;52.152;5.436;2023-10-19T06:40:36;99264.00;;;12.79;100.00
71970;BME280;59838;52.152;5.436;2023-10-19T06:43:03;99272.06;;;12.77;100.00
71970;BME280;59838;52.152;5.436;2023-10-19T06:45:32;99267.66;;;12.78;100.00
71970;BME280;59838;52.152;5.436;2023-10-19T06:47:59;99268.44;;;12.78;100.00
71970;BME280;59838;52.152;5.436;2023-10-19T06:50:26;99275.47;;;12.78;100.00
71970;BME280;59838;52.152;5.436;2023-10-19T06:52:53;99283.28;;;12.78;100.00
71970;BME280;59838;52.152;5.436;2023-10-19T06:55:22;99291.66;;;12.80;100.00
71970;BME280;59838;52.152;5.436;2023-10-19T06:57:51;99289.59;;;12.82;100.00
71970;BME280;59838;52.152;5.436;2023-10-19T07:00:19;99303.19;;;12.84;100.00
71970;BME280;59838;52.152;5.436;2023-10-19T07:02:50;99298.53;;;12.86;100.00
71970;BME280;59838;52.152;5.436;2023-10-19T07:05:20;99304.31;;;12.88;100.00
71970;BME280;59838;52.152;5.436;2023-10-19T07:07:49;99303.03;;;12.91;100.00
71970;BME280;59838;52.152;5.436;2023-10-19T07:10:18;99308.22;;;12.91;100.00
71970;BME280;59838;52.152;5.436;2023-10-19T07:12:47;99313.78;;;12.94;100.00
71970;BME280;59838;52.152;5.436;2023-10-19T07:15:14;99310.94;;;12.96;100.00
71970;BME280;59838;52.152;5.436;2023-10-19T07:17:41;99308.66;;;12.99;100.00
71970;BME280;59838;52.152;5.436;2023-10-19T07:20:10;99312.81;;;13.01;100.00
71970;BME280;59838;52.152;5.436;2023-10-19T07:22:53;99311.56;;;13.03;100.00
71970;BME280;59838;52.152;5.436;2023-10-19T07:25:21;99317.09;;;13.07;100.00
71970;BME280;59838;52.152;5.436;2023-10-19T07:27:49;99317.69;;;13.09;100.00
71970;BME280;59838;52.152;5.436;2023-10-19T07:30:17;99318.22;;;13.11;100.00
71970;BME280;59838;52.152;5.436;2023-10-19T07:32:49;99316.16;;;13.13;100.00
71970;BME280;59838;52.152;5.436;2023-10-19T07:35:26;99317.28;;;13.17;100.00
71970;BME280;59838;52.152;5.436;2023-10-19T07:37:54;99317.06;;;13.19;100.00
71970;BME280;59838;52.152;5.436;2023-10-19T07:40:23;99323.59;;;13.21;100.00
71970;BME280;59838;52.152;5.436;2023-10-19T07:42:52;99322.13;;;13.25;100.00
71970;BME280;59838;52.152;5.436;2023-10-19T07:45:21;99322.41;;;13.29;100.00
71970;BME280;59838;52.152;5.436;2023-10-19T07:47:48;99316.72;;;13.32;100.00
71970;BME280;59838;52.152;5.436;2023-10-19T07:50:14;99316.28;;;13.35;100.00
71970;BME280;59838;52.152;5.436;2023-10-19T07:52:45;99330.66;;;13.38;100.00
71970;BME280;59838;52.152;5.436;2023-10-19T07:55:15;99323.94;;;13.42;100.00
71970;BME280;59838;52.152;5.436;2023-10-19T07:57:43;99321.66;;;13.45;100.00
71970;BME280;59838;52.152;5.436;2023-10-19T08:00:11;99325.38;;;13.49;100.00
71970;BME280;59838;52.152;5.436;2023-10-19T08:02:40;99327.75;;;13.51;100.00
71970;BME280;59838;52.152;5.436;2023-10-19T08:05:08;99325.69;;;13.53;100.00
71970;BME280;59838;52.152;5.436;2023-10-19T08:07:35;99325.91;;;13.51;100.00
71970;BME280;59838;52.152;5.436;2023-10-19T08:10:03;99327.25;;;13.54;100.00
71970;BME280;59838;52.152;5.436;2023-10-19T08:12:31;99328.59;;;13.57;100.00
71970;BME280;59838;52.152;5.436;2023-10-19T08:14:59;99324.75;;;13.59;100.00
71970;BME280;59838;52.152;5.436;2023-10-19T08:17:25;99313.00;;;13.62;100.00
71970;BME280;59838;52.152;5.436;2023-10-19T08:19:52;99310.72;;;13.65;100.00
71970;BME280;59838;52.152;5.436;2023-10-19T08:22:19;99318.06;;;13.68;100.00
71970;BME280;59838;52.152;5.436;2023-10-19T08:24:45;99317.34;;;13.73;100.00
71970;BME280;59838;52.152;5.436;2023-10-19T08:27:12;99316.88;;;13.76;100.00
71970;BME280;59838;52.152;5.436;2023-10-19T08:29:39;99315.84;;;13.77;100.00
71970;BME280;59838;52.152;5.436;2023-10-19T08:32:06;99321.59;;;13.79;100.00
71970;BME280;59838;52.152;5.436;2023-10-19T08:34:36;99324.53;;;13.83;100.00
71970;BME280;59838;52.152;5.436;2023-10-19T08:37:03;99318.59;;;13.87;100.00
71970;BME280;59838;52.152;5.436;2023-10-19T08:39:31;99319.47;;;13.93;100.00
71970;BME280;59838;52.152;5.436;2023-10-19T08:42:05;99316.38;;;13.96;100.00
71970;BME280;59838;52.152;5.436;2023-10-19T08:44:32;99318.22;;;14.01;100.00
71970;BME280;59838;52.152;5.436;2023-10-19T08:46:59;99311.25;;;14.06;100.00
71970;BME280;59838;52.152;5.436;2023-10-19T08:49:26;99308.41;;;14.08;100.00
71970;BME280;59838;52.152;5.436;2023-10-19T08:51:54;99300.88;;;14.12;100.00
71970;BME280;59838;52.152;5.436;2023-10-19T08:54:20;99304.84;;;14.14;100.00
71970;BME280;59838;52.152;5.436;2023-10-19T08:56:47;99305.13;;;14.18;100.00
71970;BME280;59838;52.152;5.436;2023-10-19T08:59:14;99309.88;;;14.21;100.00
71970;BME280;59838;52.152;5.436;2023-10-19T09:01:44;99313.56;;;14.25;100.00
71970;BME280;59838;52.152;5.436;2023-10-19T09:04:11;99308.66;;;14.29;100.00
71970;BME280;59838;52.152;5.436;2023-10-19T09:06:38;99302.19;;;14.36;100.00
71970;BME280;59838;52.152;5.436;2023-10-19T09:09:12;99308.53;;;14.40;100.00
71970;BME280;59838;52.152;5.436;2023-10-19T09:11:51;99306.72;;;14.46;100.00
71970;BME280;59838;52.152;5.436;2023-10-19T09:14:32;99302.41;;;14.57;100.00
71970;BME280;59838;52.152;5.436;2023-10-19T09:17:00;99297.53;;;14.66;100.00
71970;BME280;59838;52.152;5.436;2023-10-19T09:19:44;99301.63;;;14.84;100.00
71970;BME280;59838;52.152;5.436;2023-10-19T09:22:11;99297.31;;;14.99;100.00
71970;BME280;59838;52.152;5.436;2023-10-19T09:24:49;99292.19;;;15.10;100.00
71970;BME280;59838;52.152;5.436;2023-10-19T09:27:22;99285.91;;;15.11;100.00
71970;BME280;59838;52.152;5.436;2023-10-19T09:29:49;99283.38;;;15.21;100.00
71970;BME280;59838;52.152;5.436;2023-10-19T09:32:17;99295.75;;;15.31;100.00
71970;BME280;59838;52.152;5.436;2023-10-19T09:34:46;99298.91;;;15.33;100.00
71970;BME280;59838;52.152;5.436;2023-10-19T09:37:16;99296.38;;;15.48;100.00
71970;BME280;59838;52.152;5.436;2023-10-19T09:39:42;99295.13;;;15.61;100.00
71970;BME280;59838;52.152;5.436;2023-10-19T09:42:10;99298.59;;;15.72;100.00
71970;BME280;59838;52.152;5.436;2023-10-19T09:44:44;99286.00;;;15.64;100.00
71970;BME280;59838;52.152;5.436;2023-10-19T09:47:14;99288.88;;;15.62;100.00
71970;BME280;59838;52.152;5.436;2023-10-19T09:49:41;99293.03;;;15.58;100.00
71970;BME280;59838;52.152;5.436;2023-10-19T09:52:12;99288.09;;;15.62;100.00
71970;BME280;59838;52.152;5.436;2023-10-19T09:57:20;99278.94;;;15.69;100.00
71970;BME280;59838;52.152;5.436;2023-10-19T09:59:51;99284.00;;;15.76;100.00
71970;BME280;59838;52.152;5.436;2023-10-19T10:02:21;99273.09;;;15.95;100.00
71970;BME280;59838;52.152;5.436;2023-10-19T10:04:52;99267.16;;;16.20;100.00
71970;BME280;59838;52.152;5.436;2023-10-19T10:07:19;99262.75;;;16.41;100.00
71970;BME280;59838;52.152;5.436;2023-10-19T10:10:05;99264.84;;;16.49;100.00
71970;BME280;59838;52.152;5.436;2023-10-19T10:12:32;99263.00;;;16.44;100.00
71970;BME280;59838;52.152;5.436;2023-10-19T10:15:05;99269.84;;;16.51;100.00
71970;BME280;59838;52.152;5.436;2023-10-19T10:17:37;99277.16;;;16.49;100.00
71970;BME280;59838;52.152;5.436;2023-10-19T10:22:40;99272.16;;;16.42;100.00
71970;BME280;59838;52.152;5.436;2023-10-19T10:25:25;99280.84;;;16.42;100.00
71970;BME280;59838;52.152;5.436;2023-10-19T10:27:56;99279.25;;;16.36;100.00
71970;BME280;59838;52.152;5.436;2023-10-19T10:30:23;99285.00;;;16.38;100.00
71970;BME280;59838;52.152;5.436;2023-10-19T10:32:51;99291.59;;;16.41;100.00
71970;BME280;59838;52.152;5.436;2023-10-19T10:38:06;99272.72;;;16.59;100.00
71970;BME280;59838;52.152;5.436;2023-10-19T10:40:46;99265.69;;;16.70;100.00
71970;BME280;59838;52.152;5.436;2023-10-19T10:43:18;99265.66;;;16.80;100.00
71970;BME280;59838;52.152;5.436;2023-10-19T10:45:45;99263.88;;;16.86;100.00
71970;BME280;59838;52.152;5.436;2023-10-19T10:48:15;99262.25;;;16.80;100.00
71970;BME280;59838;52.152;5.436;2023-10-19T10:50:42;99263.81;;;16.81;100.00
71970;BME280;59838;52.152;5.436;2023-10-19T10:53:13;99254.94;;;16.87;100.00
71970;BME280;59838;52.152;5.436;2023-10-19T10:55:44;99256.53;;;16.88;100.00
71970;BME280;59838;52.152;5.436;2023-10-19T10:58:18;99243.38;;;16.83;100.00
71970;BME280;59838;52.152;5.436;2023-10-19T11:00:46;99233.69;;;16.73;100.00
71970;BME280;59838;52.152;5.436;2023-10-19T11:03:18;99230.00;;;16.69;100.00
71970;BME280;59838;52.152;5.436;2023-10-19T11:05:45;99234.97;;;16.71;100.00
71970;BME280;59838;52.152;5.436;2023-10-19T11:08:13;99232.34;;;16.71;100.00
71970;BME280;59838;52.152;5.436;2023-10-19T11:10:42;99237.34;;;16.77;100.00
71970;BME280;59838;52.152;5.436;2023-10-19T11:13:10;99233.69;;;16.89;100.00
71970;BME280;59838;52.152;5.436;2023-10-19T11:15:39;99221.63;;;16.98;100.00
71970;BME280;59838;52.152;5.436;2023-10-19T11:18:28;99221.91;;;16.96;100.00
71970;BME280;59838;52.152;5.436;2023-10-19T11:20:56;99228.44;;;16.99;100.00
71970;BME280;59838;52.152;5.436;2023-10-19T11:26:08;99233.94;;;17.08;100.00
71970;BME280;59838;52.152;5.436;2023-10-19T11:28:36;99229.75;;;17.17;100.00
71970;BME280;59838;52.152;5.436;2023-10-19T11:31:18;99229.22;;;17.25;100.00
71970;BME280;59838;52.152;5.436;2023-10-19T11:33:46;99232.34;;;17.27;100.00
71970;BME280;59838;52.152;5.436;2023-10-19T11:36:17;99222.09;;;17.26;100.00
71970;BME280;59838;52.152;5.436;2023-10-19T11:38:45;99218.97;;;17.29;100.00
71970;BME280;59838;52.152;5.436;2023-10-19T11:41:13;99225.22;;;17.33;100.00
71970;BME280;59838;52.152;5.436;2023-10-19T11:43:42;99230.22;;;17.45;100.00
71970;BME280;59838;52.152;5.436;2023-10-19T11:46:10;99223.34;;;17.54;100.00
71970;BME280;59838;52.152;5.436;2023-10-19T11:48:39;99221.16;;;17.71;100.00
71970;BME280;59838;52.152;5.436;2023-10-19T11:51:06;99217.47;;;17.78;100.00
71970;BME280;59838;52.152;5.436;2023-10-19T11:53:35;99214.81;;;17.93;100.00
71970;BME280;59838;52.152;5.436;2023-10-19T11:56:05;99217.88;;;18.05;100.00
71970;BME280;59838;52.152;5.436;2023-10-19T11:58:36;99205.19;;;18.23;100.00
71970;BME280;59838;52.152;5.436;2023-10-19T12:01:10;99205.91;;;18.28;100.00
71970;BME280;59838;52.152;5.436;2023-10-19T12:03:41;99198.88;;;18.24;100.00
71970;BME280;59838;52.152;5.436;2023-10-19T12:06:08;99194.16;;;18.21;100.00
71970;BME280;59838;52.152;5.436;2023-10-19T12:08:36;99195.47;;;18.18;100.00
71970;BME280;59838;52.152;5.436;2023-10-19T12:11:03;99186.97;;;18.32;100.00
71970;BME280;59838;52.152;5.436;2023-10-19T12:13:30;99188.56;;;18.33;100.00
71970;BME280;59838;52.152;5.436;2023-10-19T12:15:58;99179.91;;;18.27;100.00
71970;BME280;59838;52.152;5.436;2023-10-19T12:18:25;99192.03;;;18.23;100.00
71970;BME280;59838;52.152;5.436;2023-10-19T12:20:55;99188.38;;;18.19;100.00
71970;BME280;59838;52.152;5.436;2023-10-19T12:23:26;99197.63;;;18.11;100.00
71970;BME280;59838;52.152;5.436;2023-10-19T12:25:53;99199.72;;;18.09;100.00
71970;BME280;59838;52.152;5.436;2023-10-19T12:28:23;99190.59;;;18.01;100.00
71970;BME280;59838;52.152;5.436;2023-10-19T12:30:51;99186.91;;;18.02;100.00
71970;BME280;59838;52.152;5.436;2023-10-19T12:33:18;99184.81;;;18.04;100.00
71970;BME280;59838;52.152;5.436;2023-10-19T12:35:46;99179.56;;;18.04;100.00
71970;BME280;59838;52.152;5.436;2023-10-19T12:38:20;99171.16;;;17.97;100.00
71970;BME280;59838;52.152;5.436;2023-10-19T12:40:48;99172.53;;;17.89;100.00
71970;BME280;59838;52.152;5.436;2023-10-19T12:43:15;99167.00;;;17.86;100.00
71970;BME280;59838;52.152;5.436;2023-10-19T12:45:42;99163.31;;;17.87;100.00
71970;BME280;59838;52.152;5.436;2023-10-19T12:48:10;99169.16;;;17.79;100.00
71970;BME280;59838;52.152;5.436;2023-10-19T12:50:38;99169.16;;;17.73;100.00
71970;BME280;59838;52.152;5.436;2023-10-19T12:53:05;99166.03;;;17.71;100.00
71970;BME280;59838;52.152;5.436;2023-10-19T12:55:32;99174.97;;;17.65;100.00
71970;BME280;59838;52.152;5.436;2023-10-19T12:57:59;99170.78;;;17.64;100.00
71970;BME280;59838;52.152;5.436;2023-10-19T13:00:33;99164.25;;;17.57;100.00
71970;BME280;59838;52.152;5.436;2023-10-19T13:03:07;99165.84;;;17.52;100.00
71970;BME280;59838;52.152;5.436;2023-10-19T13:05:35;99158.78;;;17.48;100.00
71970;BME280;59838;52.152;5.436;2023-10-19T13:08:07;99149.88;;;17.44;100.00
71970;BME280;59838;52.152;5.436;2023-10-19T13:10:35;99164.06;;;17.38;100.00
71970;BME280;59838;52.152;5.436;2023-10-19T13:13:05;99170.63;;;17.40;100.00
71970;BME280;59838;52.152;5.436;2023-10-19T13:15:32;99180.88;;;17.36;100.00
71970;BME280;59838;52.152;5.436;2023-10-19T13:18:02;99173.00;;;17.36;100.00